createdAt,value
2022-09-21T00:00:25.822Z,86.75
2022-09-21T00:02:55.031Z,86.92
2022-09-21T00:05:21.720Z,86.95
2022-09-21T00:07:48.361Z,87.00
2022-09-21T00:10:15.056Z,86.86
2022-09-21T00:12:41.696Z,86.60
2022-09-21T00:15:10.150Z,86.22
2022-09-21T00:17:37.521Z,86.25
2022-09-21T00:20:05.949Z,86.34
2022-09-21T00:22:33.397Z,86.51
2022-09-21T00:25:02.980Z,86.61
2022-09-21T00:27:30.414Z,86.65
2022-09-21T00:30:06.907Z,86.75
2022-09-21T00:32:34.887Z,86.64
2022-09-21T00:35:02.917Z,86.57
2022-09-21T00:37:29.686Z,86.54
2022-09-21T00:39:56.424Z,86.36
2022-09-21T00:42:28.395Z,86.37
2022-09-21T00:44:55.059Z,86.34
2022-09-21T00:47:35.455Z,86.07
2022-09-21T00:50:08.123Z,86.12
2022-09-21T00:52:38.111Z,86.14
2022-09-21T00:55:10.816Z,86.25
2022-09-21T00:57:37.534Z,86.30
2022-09-21T01:00:06.853Z,86.26
2022-09-21T01:02:34.680Z,86.15
2022-09-21T01:05:01.404Z,86.17
2022-09-21T01:07:29.437Z,86.38
2022-09-21T01:09:58.753Z,86.46
2022-09-21T01:12:47.385Z,86.34
2022-09-21T01:15:19.776Z,86.42
2022-09-21T01:17:50.115Z,86.38
2022-09-21T01:20:35.244Z,86.61
2022-09-21T01:23:32.855Z,86.85
2022-09-21T01:26:16.688Z,86.70
2022-09-21T01:29:21.984Z,86.55
2022-09-21T01:31:55.102Z,86.54
2022-09-21T01:34:52.780Z,86.39
2022-09-21T01:37:21.421Z,86.57
2022-09-21T01:39:50.068Z,86.73
2022-09-21T01:42:16.672Z,86.47
2022-09-21T01:44:43.485Z,86.48
2022-09-21T01:47:12.626Z,86.72
2022-09-21T01:49:53.368Z,86.49
2022-09-21T01:52:27.088Z,86.51
2022-09-21T01:54:56.408Z,86.48
2022-09-21T01:57:47.452Z,86.32
2022-09-21T02:00:14.744Z,86.30
2022-09-21T02:02:50.683Z,86.22
2022-09-21T02:05:19.548Z,86.28
2022-09-21T02:07:46.705Z,86.42
2022-09-21T02:10:26.500Z,86.42
2022-09-21T02:12:54.049Z,86.45
2022-09-21T02:15:21.772Z,86.64
2022-09-21T02:17:56.816Z,86.70
2022-09-21T02:20:27.291Z,86.72
2022-09-21T02:23:12.899Z,86.44
2022-09-21T02:25:50.940Z,86.46
2022-09-21T02:28:29.427Z,86.32
2022-09-21T02:31:13.926Z,86.44
2022-09-21T02:34:02.284Z,86.28
2022-09-21T02:36:54.996Z,86.05
2022-09-21T02:39:51.600Z,85.85
2022-09-21T02:42:29.965Z,85.99
2022-09-21T02:45:22.196Z,85.93
2022-09-21T02:47:55.392Z,85.99
2022-09-21T02:50:24.331Z,86.00
2022-09-21T02:52:50.974Z,85.74
2022-09-21T02:55:17.609Z,85.81
2022-09-21T02:57:45.408Z,85.60
2022-09-21T03:00:12.335Z,85.72
2022-09-21T03:02:39.800Z,85.74
2022-09-21T03:05:07.153Z,85.51
2022-09-21T03:07:33.978Z,85.32
2022-09-21T03:10:00.705Z,85.25
2022-09-21T03:12:27.413Z,85.41
2022-09-21T03:15:03.986Z,85.53
2022-09-21T03:17:31.077Z,85.46
2022-09-21T03:19:57.752Z,85.33
2022-09-21T03:22:24.660Z,85.30
2022-09-21T03:24:51.504Z,85.30
2022-09-21T03:27:19.740Z,85.11
2022-09-21T03:29:46.602Z,85.14
2022-09-21T03:32:22.530Z,85.18
2022-09-21T03:34:49.583Z,84.99
2022-09-21T03:37:23.662Z,85.30
2022-09-21T03:39:50.593Z,85.32
2022-09-21T03:42:17.204Z,85.10
2022-09-21T03:44:43.943Z,85.13
2022-09-21T03:47:10.658Z,85.17
2022-09-21T03:49:38.644Z,85.00
2022-09-21T03:52:05.306Z,84.59
2022-09-21T03:54:32.185Z,84.67
2022-09-21T03:56:59.312Z,84.72
2022-09-21T03:59:25.920Z,84.39
2022-09-21T04:01:52.656Z,84.49
2022-09-21T04:04:25.629Z,84.45
2022-09-21T04:06:53.360Z,84.56
2022-09-21T04:09:20.044Z,84.62
2022-09-21T04:11:46.764Z,84.54
2022-09-21T04:14:13.507Z,84.35
2022-09-21T04:16:40.180Z,84.15
2022-09-21T04:19:07.276Z,84.25
2022-09-21T04:21:34.155Z,84.04
2022-09-21T04:24:01.977Z,84.05
2022-09-21T04:26:30.936Z,83.99
2022-09-21T04:28:58.033Z,83.90
2022-09-21T04:31:25.436Z,83.92
2022-09-21T04:33:53.085Z,83.66
2022-09-21T04:36:20.799Z,83.59
2022-09-21T04:38:47.500Z,83.67
2022-09-21T04:41:14.860Z,83.44
2022-09-21T04:43:42.891Z,83.41
2022-09-21T04:46:12.578Z,83.37
2022-09-21T04:48:39.746Z,83.47
2022-09-21T04:51:07.895Z,83.37
2022-09-21T04:53:35.751Z,83.28
2022-09-21T04:56:02.893Z,83.09
2022-09-21T04:58:29.629Z,83.25
2022-09-21T05:00:56.772Z,83.18
2022-09-21T05:03:24.749Z,83.13
2022-09-21T05:05:53.240Z,82.97
2022-09-21T05:08:39.209Z,82.95
2022-09-21T05:11:06.656Z,83.22
2022-09-21T05:13:33.376Z,83.09
2022-09-21T05:16:00.157Z,83.18
2022-09-21T05:18:26.877Z,82.95
2022-09-21T05:20:55.308Z,83.28
2022-09-21T05:23:22.879Z,83.42
2022-09-21T05:25:49.860Z,83.52
2022-09-21T05:28:17.589Z,83.81
2022-09-21T05:31:01.439Z,83.70
2022-09-21T05:33:33.240Z,83.75
2022-09-21T05:36:24.482Z,84.12
2022-09-21T05:38:51.376Z,84.47
2022-09-21T05:41:18.283Z,84.69
2022-09-21T05:43:45.613Z,84.89
2022-09-21T05:46:37.167Z,84.96
2022-09-21T05:49:07.344Z,85.08
2022-09-21T05:52:09.441Z,85.09
2022-09-21T05:55:03.825Z,85.01
2022-09-21T05:57:42.160Z,84.96
2022-09-21T06:00:19.346Z,84.86
2022-09-21T06:03:07.437Z,84.79
2022-09-21T06:05:34.076Z,84.60
2022-09-21T06:08:00.789Z,84.65
2022-09-21T06:10:33.824Z,84.56
2022-09-21T06:13:12.494Z,84.72
2022-09-21T06:15:39.463Z,84.94
2022-09-21T06:18:06.984Z,84.93
2022-09-21T06:20:33.612Z,85.06
2022-09-21T06:23:03.917Z,84.88
2022-09-21T06:25:30.636Z,84.71
2022-09-21T06:28:02.619Z,84.64
2022-09-21T06:30:29.293Z,84.88
2022-09-21T06:32:59.172Z,85.10
2022-09-21T06:35:36.042Z,85.05
2022-09-21T06:38:13.211Z,84.65
2022-09-21T06:40:39.862Z,84.22
2022-09-21T06:43:06.558Z,83.53
2022-09-21T06:45:33.453Z,83.08
2022-09-21T06:48:00.190Z,82.25
2022-09-21T06:50:27.019Z,81.98
2022-09-21T06:52:53.727Z,81.13
2022-09-21T06:55:20.364Z,80.39
2022-09-21T06:57:47.233Z,79.76
2022-09-21T07:00:14.413Z,79.36
2022-09-21T07:02:45.134Z,79.10
2022-09-21T07:05:12.151Z,78.92
2022-09-21T07:07:40.255Z,78.87
2022-09-21T07:10:13.186Z,78.90
2022-09-21T07:12:41.669Z,78.80
2022-09-21T07:15:10.356Z,79.02
2022-09-21T07:17:38.613Z,79.10
2022-09-21T07:20:06.311Z,78.93
2022-09-21T07:22:32.956Z,79.05
2022-09-21T07:24:59.859Z,78.92
2022-09-21T07:27:27.564Z,78.63
2022-09-21T07:29:54.244Z,78.44
2022-09-21T07:32:21.065Z,78.28
2022-09-21T07:34:47.832Z,78.33
2022-09-21T07:37:25.840Z,78.59
2022-09-21T07:39:54.603Z,78.69
2022-09-21T07:42:22.613Z,78.74
2022-09-21T07:44:49.402Z,78.93
2022-09-21T07:47:16.266Z,79.09
2022-09-21T07:49:42.923Z,78.85
2022-09-21T07:52:11.260Z,78.71
2022-09-21T07:54:38.076Z,78.88
2022-09-21T07:57:23.441Z,79.01
2022-09-21T07:59:50.542Z,79.36
2022-09-21T08:02:17.199Z,79.63
2022-09-21T08:04:43.891Z,79.95
2022-09-21T08:07:10.560Z,80.27
2022-09-21T08:09:37.292Z,80.71
2022-09-21T08:12:03.967Z,80.89
2022-09-21T08:14:30.652Z,81.21
2022-09-21T08:16:57.285Z,81.75
2022-09-21T08:19:25.979Z,81.92
2022-09-21T08:21:57.269Z,81.87
2022-09-21T08:24:26.729Z,82.04
2022-09-21T08:26:55.777Z,81.97
2022-09-21T08:29:23.287Z,82.05
2022-09-21T08:31:50.028Z,82.38
2022-09-21T08:34:16.720Z,82.57
2022-09-21T08:36:43.710Z,82.68
2022-09-21T08:39:10.436Z,82.73
2022-09-21T08:41:49.758Z,82.61
2022-09-21T08:44:29.785Z,82.54
2022-09-21T08:47:14.956Z,82.69
2022-09-21T08:49:42.008Z,82.52
2022-09-21T08:52:16.218Z,82.64
2022-09-21T08:54:56.006Z,82.67
2022-09-21T08:57:24.652Z,82.44
2022-09-21T08:59:51.843Z,82.64
2022-09-21T09:02:37.811Z,82.35
2022-09-21T09:05:12.868Z,81.86
2022-09-21T09:07:59.569Z,81.09
2022-09-21T09:10:45.637Z,81.09
2022-09-21T09:13:15.349Z,81.25
2022-09-21T09:16:17.707Z,81.66
2022-09-21T09:19:33.555Z,81.93
2022-09-21T09:22:00.249Z,81.54
2022-09-21T09:24:39.147Z,81.17
2022-09-21T09:27:21.746Z,80.75
2022-09-21T09:29:52.917Z,80.22
2022-09-21T09:32:19.592Z,79.93
2022-09-21T09:37:12.785Z,78.64
2022-09-21T09:39:39.756Z,78.21
2022-09-21T09:42:13.988Z,77.90
2022-09-21T09:44:54.919Z,77.75
2022-09-21T09:47:45.342Z,77.67
2022-09-21T09:50:20.499Z,77.82
2022-09-21T09:52:50.443Z,78.34
2022-09-21T09:55:25.851Z,78.58
2022-09-21T09:57:54.909Z,78.32
2022-09-21T10:00:22.232Z,78.26
2022-09-21T10:02:50.077Z,78.14
2022-09-21T10:05:39.751Z,77.33
2022-09-21T10:08:26.579Z,76.37
2022-09-21T10:10:53.645Z,75.40
2022-09-21T10:13:34.312Z,74.92
2022-09-21T10:16:22.115Z,74.60
2022-09-21T10:18:51.137Z,74.72
2022-09-21T10:21:23.095Z,74.65
2022-09-21T10:24:21.857Z,74.84
2022-09-21T10:26:55.012Z,74.85
2022-09-21T10:29:58.437Z,75.27
2022-09-21T10:32:27.022Z,75.82
2022-09-21T10:35:14.100Z,75.70
2022-09-21T10:37:45.560Z,75.82
2022-09-21T10:40:21.500Z,75.84
2022-09-21T10:42:49.268Z,75.53
2022-09-21T10:45:22.508Z,75.34
2022-09-21T10:48:08.580Z,75.44
2022-09-21T10:50:39.410Z,75.26
2022-09-21T10:53:09.040Z,74.94
2022-09-21T10:56:17.372Z,75.01
2022-09-21T10:59:10.493Z,75.41
2022-09-21T11:01:37.253Z,75.39
2022-09-21T11:04:07.320Z,75.62
2022-09-21T11:06:41.023Z,75.70
2022-09-21T11:09:37.136Z,75.75
2022-09-21T11:12:36.540Z,75.63
2022-09-21T11:15:18.300Z,75.84
2022-09-21T11:17:49.470Z,76.09
2022-09-21T11:20:27.007Z,76.12
2022-09-21T11:22:57.383Z,75.85
2022-09-21T11:25:44.365Z,76.01
2022-09-21T11:28:19.532Z,76.01
2022-09-21T11:31:01.674Z,75.94
2022-09-21T11:33:35.172Z,75.74
2022-09-21T11:36:08.301Z,75.36
2022-09-21T11:38:46.339Z,75.18
2022-09-21T11:41:28.501Z,74.91
2022-09-21T11:44:12.569Z,73.75
2022-09-21T11:51:55.973Z,72.82
2022-09-21T11:54:46.499Z,72.92
2022-09-21T11:57:28.409Z,72.95
2022-09-21T11:59:55.098Z,73.25
2022-09-21T12:02:24.931Z,73.67
2022-09-21T12:04:57.995Z,73.83
2022-09-21T12:08:04.759Z,73.88
2022-09-21T12:10:39.642Z,74.02
2022-09-21T12:13:29.192Z,73.48
2022-09-21T12:16:06.446Z,73.20
2022-09-21T12:18:35.543Z,72.92
2022-09-21T12:21:37.106Z,72.14
2022-09-21T12:24:05.934Z,71.09
2022-09-21T12:26:44.815Z,70.44
2022-09-21T12:29:37.220Z,70.56
2022-09-21T12:32:25.737Z,70.50
2022-09-21T12:34:57.591Z,70.01
2022-09-21T12:37:33.949Z,69.79
2022-09-21T12:40:28.139Z,69.96
2022-09-21T12:43:29.359Z,69.45
2022-09-21T12:46:05.656Z,68.91
2022-09-21T12:48:39.761Z,69.06
2022-09-21T12:51:30.351Z,69.32
2022-09-21T12:53:58.832Z,69.67
2022-09-21T12:56:44.734Z,70.16
2022-09-21T12:59:43.537Z,70.64
2022-09-21T13:02:34.745Z,71.20
2022-09-21T13:05:11.864Z,71.83
2022-09-21T13:07:48.044Z,72.08
2022-09-21T13:10:18.461Z,72.51
2022-09-21T13:12:46.569Z,72.51
2022-09-21T13:15:42.036Z,72.42
2022-09-21T13:18:33.786Z,71.47
2022-09-21T13:21:26.593Z,71.11
2022-09-21T13:24:01.409Z,71.47
2022-09-21T13:26:41.933Z,71.92
2022-09-21T13:29:17.645Z,72.29
2022-09-21T13:32:00.687Z,72.52
2022-09-21T13:34:37.683Z,73.07
2022-09-21T13:37:19.683Z,73.35
2022-09-21T13:40:15.098Z,74.15
2022-09-21T13:42:48.723Z,74.51
2022-09-21T13:45:15.625Z,75.28
2022-09-21T13:47:43.258Z,76.06
2022-09-21T13:50:29.239Z,76.83
2022-09-21T13:52:59.262Z,77.34
2022-09-21T13:55:38.652Z,78.02
2022-09-21T13:58:07.909Z,78.33
2022-09-21T14:00:41.919Z,78.60
2022-09-21T14:03:32.188Z,78.84
2022-09-21T14:06:27.132Z,78.76
2022-09-21T14:08:58.077Z,79.06
2022-09-21T14:11:35.728Z,79.48
2022-09-21T14:14:12.257Z,79.55
2022-09-21T14:16:39.996Z,79.50
2022-09-21T14:19:19.019Z,79.58
2022-09-21T14:22:41.772Z,79.44
2022-09-21T14:25:29.096Z,79.48
2022-09-21T14:27:59.523Z,79.44
2022-09-21T14:30:28.757Z,79.43
2022-09-21T14:33:02.135Z,79.53
2022-09-21T14:35:33.654Z,79.75
2022-09-21T14:38:02.380Z,79.55
2022-09-21T14:40:31.987Z,79.07
2022-09-21T14:43:00.583Z,78.64
2022-09-21T14:45:50.444Z,77.76
2022-09-21T14:48:31.120Z,76.76
2022-09-21T14:51:05.062Z,75.91
2022-09-21T14:53:39.374Z,75.42
2022-09-21T14:56:27.793Z,75.25
2022-09-21T14:59:22.935Z,75.59
2022-09-21T15:01:59.732Z,75.92
2022-09-21T15:04:39.873Z,76.17
2022-09-21T15:07:35.510Z,76.61
2022-09-21T15:10:38.240Z,77.21
2022-09-21T15:13:08.338Z,77.75
2022-09-21T15:15:45.640Z,78.12
2022-09-21T15:18:20.913Z,78.35
2022-09-21T15:21:04.198Z,78.64
2022-09-21T15:23:40.468Z,79.11
2022-09-21T15:26:13.884Z,79.52
2022-09-21T15:29:08.925Z,79.73
2022-09-21T15:31:40.403Z,79.85
2022-09-21T15:34:07.899Z,80.04
2022-09-21T15:36:39.636Z,80.30
2022-09-21T15:39:06.541Z,80.49
2022-09-21T15:41:41.439Z,80.73
2022-09-21T15:44:22.034Z,80.79
2022-09-21T15:46:57.941Z,80.88
2022-09-21T15:49:25.024Z,80.58
2022-09-21T15:52:01.517Z,80.83
2022-09-21T15:54:34.669Z,80.51
2022-09-21T15:57:08.242Z,80.82
2022-09-21T15:59:35.308Z,80.57
2022-09-21T16:02:12.013Z,80.28
2022-09-21T16:04:39.454Z,79.96
2022-09-21T16:07:07.462Z,79.93
2022-09-21T16:09:45.063Z,79.94
2022-09-21T16:12:27.045Z,79.92
2022-09-21T16:14:53.807Z,80.08
2022-09-21T16:17:23.642Z,80.44
2022-09-21T16:19:56.850Z,80.62
2022-09-21T16:22:25.362Z,80.85
2022-09-21T16:24:55.310Z,80.95
2022-09-21T16:27:26.770Z,81.19
2022-09-21T16:29:54.470Z,81.45
2022-09-21T16:32:27.458Z,81.65
2022-09-21T16:34:54.854Z,81.94
2022-09-21T16:37:24.313Z,81.92
2022-09-21T16:39:58.696Z,82.03
2022-09-21T16:42:27.960Z,82.15
2022-09-21T16:44:54.870Z,82.09
2022-09-21T16:47:25.149Z,82.36
2022-09-21T16:50:00.302Z,82.37
2022-09-21T16:52:30.854Z,82.44
2022-09-21T16:54:58.835Z,82.39
2022-09-21T16:57:26.102Z,82.69
2022-09-21T16:59:52.902Z,82.62
2022-09-21T17:02:19.602Z,82.66
2022-09-21T17:04:48.014Z,82.60
2022-09-21T17:07:14.992Z,82.41
2022-09-21T17:09:47.813Z,82.52
2022-09-21T17:12:16.759Z,82.25
2022-09-21T17:14:46.729Z,82.43
2022-09-21T17:17:21.652Z,82.20
2022-09-21T17:19:50.042Z,82.33
2022-09-21T17:22:19.733Z,82.09
2022-09-21T17:24:51.442Z,81.78
2022-09-21T17:27:21.835Z,81.83
2022-09-21T17:29:49.817Z,81.78
2022-09-21T17:32:20.294Z,81.80
2022-09-21T17:34:50.173Z,81.64
2022-09-21T17:37:17.041Z,81.55
2022-09-21T17:39:44.973Z,81.52
2022-09-21T17:42:19.136Z,81.29
2022-09-21T17:45:03.320Z,81.27
2022-09-21T17:47:31.261Z,81.25
2022-09-21T17:50:13.180Z,81.41
2022-09-21T17:52:59.618Z,81.47
2022-09-21T17:55:26.659Z,81.43
2022-09-21T17:58:09.939Z,81.46
2022-09-21T18:01:24.642Z,81.64
2022-09-21T18:03:52.613Z,81.52
2022-09-21T18:06:19.447Z,81.50
2022-09-21T18:08:46.325Z,81.53
2022-09-21T18:11:37.495Z,81.52
2022-09-21T18:14:25.058Z,81.49
2022-09-21T18:17:14.528Z,81.48
2022-09-21T18:20:03.516Z,81.66
2022-09-21T18:22:49.508Z,81.37
2022-09-21T18:25:21.469Z,81.45
2022-09-21T18:27:48.664Z,81.65
2022-09-21T18:30:17.488Z,82.01
2022-09-21T18:32:55.100Z,81.86
2022-09-21T18:35:46.209Z,81.82
2022-09-21T18:38:27.041Z,82.29
2022-09-21T18:41:34.619Z,82.34
2022-09-21T18:44:26.096Z,82.35
2022-09-21T18:47:10.825Z,82.24
2022-09-21T18:50:15.301Z,82.19
2022-09-21T18:53:00.756Z,82.01
2022-09-21T18:55:28.796Z,81.79
2022-09-21T18:57:56.224Z,81.82
2022-09-21T19:00:25.161Z,81.78
2022-09-21T19:03:15.343Z,81.76
2022-09-21T19:05:39.831Z,81.93
2022-09-21T19:08:11.727Z,82.16
2022-09-21T19:10:40.573Z,82.24
2022-09-21T19:13:35.625Z,82.04
2022-09-21T19:16:32.721Z,82.03
2022-09-21T19:19:05.726Z,81.94
2022-09-21T19:22:04.524Z,82.33
2022-09-21T19:24:54.025Z,82.38
2022-09-21T19:27:29.867Z,82.55
2022-09-21T19:30:06.429Z,82.44
2022-09-21T19:32:45.088Z,82.36
2022-09-21T19:35:23.228Z,82.52
2022-09-21T19:37:52.091Z,82.74
2022-09-21T19:40:21.646Z,82.81
2022-09-21T19:42:59.487Z,83.01
2022-09-21T19:45:39.331Z,83.01
2022-09-21T19:48:10.007Z,83.16
2022-09-21T19:50:40.933Z,83.14
2022-09-21T19:53:28.900Z,83.39
2022-09-21T19:56:14.252Z,83.50
2022-09-21T19:58:59.683Z,83.51
2022-09-21T20:04:16.323Z,83.83
2022-09-21T20:06:45.867Z,83.79
2022-09-21T20:09:40.023Z,83.70
2022-09-21T20:12:22.700Z,83.90
2022-09-21T20:14:57.784Z,84.00
2022-09-21T20:17:33.758Z,84.29
2022-09-21T20:20:08.490Z,84.28
2022-09-21T20:22:36.541Z,84.27
2022-09-21T20:25:23.682Z,84.36
2022-09-21T20:27:55.955Z,84.35
2022-09-21T20:30:27.905Z,84.49
2022-09-21T20:33:01.677Z,84.25
2022-09-21T20:35:30.330Z,84.38
2022-09-21T20:38:01.903Z,84.32
2022-09-21T20:40:29.320Z,84.30
2022-09-21T20:42:56.620Z,84.19
2022-09-21T20:45:23.700Z,84.11
2022-09-21T20:47:53.593Z,84.33
2022-09-21T20:50:21.129Z,84.23
2022-09-21T20:52:48.088Z,84.09
2022-09-21T20:55:17.341Z,84.01
2022-09-21T20:57:44.352Z,84.08
2022-09-21T21:00:13.419Z,84.28
2022-09-21T21:02:40.287Z,84.49
2022-09-21T21:05:08.050Z,84.60
2022-09-21T21:07:35.425Z,84.65
2022-09-21T21:10:02.631Z,84.47
2022-09-21T21:12:29.432Z,84.41
2022-09-21T21:14:59.113Z,84.39
2022-09-21T21:17:25.944Z,84.41
2022-09-21T21:19:52.759Z,84.37
2022-09-21T21:22:19.394Z,84.37
2022-09-21T21:24:46.232Z,84.52
2022-09-21T21:27:16.343Z,84.41
2022-09-21T21:29:46.996Z,84.27
2022-09-21T21:32:14.828Z,84.30
2022-09-21T21:34:41.701Z,84.30
2022-09-21T21:37:09.250Z,84.46
2022-09-21T21:39:36.112Z,84.33
2022-09-21T21:42:02.891Z,84.44
2022-09-21T21:44:29.704Z,84.47
2022-09-21T21:47:10.063Z,84.48
2022-09-21T21:49:43.939Z,84.65
2022-09-21T21:55:10.263Z,84.63
2022-09-21T21:57:36.955Z,84.65
2022-09-21T22:00:05.495Z,84.59
2022-09-21T22:02:32.403Z,84.44
2022-09-21T22:04:59.194Z,84.50
2022-09-21T22:07:25.813Z,84.31
2022-09-21T22:09:52.445Z,84.32
2022-09-21T22:12:19.626Z,84.47
2022-09-21T22:14:47.685Z,84.46
2022-09-21T22:17:14.482Z,84.33
2022-09-21T22:19:41.154Z,84.34
2022-09-21T22:22:07.799Z,84.17
2022-09-21T22:24:34.449Z,84.21
2022-09-21T22:27:01.188Z,84.10
2022-09-21T22:29:27.837Z,84.14
2022-09-21T22:31:55.588Z,83.76
2022-09-21T22:34:22.348Z,83.79
2022-09-21T22:36:50.264Z,83.75
2022-09-21T22:39:16.998Z,83.79
2022-09-21T22:41:43.728Z,83.92
2022-09-21T22:44:10.644Z,84.13
2022-09-21T22:46:38.635Z,84.05
2022-09-21T22:49:15.276Z,84.04
2022-09-21T22:51:41.916Z,84.02
2022-09-21T22:54:08.623Z,84.07
2022-09-21T22:56:35.412Z,83.96
2022-09-21T22:59:03.084Z,83.62
2022-09-21T23:01:37.582Z,83.41
2022-09-21T23:04:06.578Z,83.14
2022-09-21T23:06:34.743Z,82.88
2022-09-21T23:09:02.636Z,82.77
2022-09-21T23:11:32.431Z,82.62
2022-09-21T23:13:59.410Z,82.52
2022-09-21T23:16:27.386Z,82.55
2022-09-21T23:18:54.213Z,82.36
2022-09-21T23:21:25.019Z,82.23
2022-09-21T23:23:59.777Z,82.18
2022-09-21T23:26:27.285Z,82.09
2022-09-21T23:28:55.703Z,81.93
2022-09-21T23:31:22.659Z,81.88
2022-09-21T23:33:51.019Z,81.89
2022-09-21T23:36:19.658Z,81.91
2022-09-21T23:38:47.096Z,81.89
2022-09-21T23:41:18.906Z,81.87
2022-09-21T23:43:45.773Z,82.07
2022-09-21T23:46:14.920Z,82.00
2022-09-21T23:48:41.870Z,82.06
2022-09-21T23:51:08.614Z,82.07
2022-09-21T23:53:35.607Z,82.02
2022-09-21T23:56:02.564Z,81.79
2022-09-21T23:58:29.222Z,81.88
